Pimentel, Peru
Current Conditions -  °F | °C
As of 8:00 AM on Friday 24 Oct 2014 (Local Time) from SPHI Reporting Station
Overcast Overcast  
Wind Chill: 66°   Ceiling: 1200
Heat Index: 66°   Visibility: 6mi
Dew Point: 61°   Wind: 9mph
Humidity: 83%   Direction: 170°S
Pressure: 29.94"   Gusts: NA
Location:  6.83°S, 79.93°W
Report Text: SPHI 241300Z 17008KT 9999 OVC012 19/16 Q1014 RMK PP000
Loading
Personal Weather Stations






























Interactive Weather Map
Tropical Storm Tracking
New forecast layout! Learn more

10-Day Weather Forecast

Advertisements
Track Severe Weather on mobile